Time;durP1;ratioP1;P1;durP2;ratioP2;P2;SDS_P1;SDS_P2;PMS_P1;PMS_P2;Temp;Humidity;BMP_temperature;BMP_pressure;BME280_temperature;BME280_humidity;BME280_pressure;Samples;Min_cycle;Max_cycle;Signal;HPM_P1;HPM_P2
2021/03/20 00:01:06;;;;;;;2.63;2.43;;;19.80;39.40;;;;;;5050133;28;20569;-70
2021/03/20 00:03:32;;;;;;;2.40;1.90;;;19.80;39.60;;;;;;5051905;28;20508;-70
2021/03/20 00:05:58;;;;;;;2.00;1.90;;;19.90;39.70;;;;;;5067082;28;21081;-71
2021/03/20 00:08:24;;;;;;;1.80;1.70;;;19.80;39.70;;;;;;5056202;28;20492;-70
2021/03/20 00:10:51;;;;;;;2.57;2.37;;;19.80;40.30;;;;;;5055168;28;20478;-71
2021/03/20 00:13:19;;;;;;;2.40;1.90;;;19.80;39.70;;;;;;5071910;28;20517;-71
2021/03/20 00:15:45;;;;;;;2.33;2.20;;;19.80;39.80;;;;;;5069475;28;20487;-71
2021/03/20 00:18:11;;;;;;;2.07;1.97;;;19.80;39.60;;;;;;5052072;28;21044;-71
2021/03/20 00:20:39;;;;;;;3.23;2.23;;;19.80;39.70;;;;;;5054337;28;20487;-70
2021/03/20 00:23:06;;;;;;;1.57;1.50;;;19.80;39.80;;;;;;5065682;28;20493;-70
2021/03/20 00:25:32;;;;;;;3.33;2.10;;;19.80;40.00;;;;;;5053619;28;20492;-70
2021/03/20 00:28:00;;;;;;;2.50;1.93;;;19.80;39.90;;;;;;5054948;28;20481;-71
2021/03/20 00:30:27;;;;;;;2.03;1.53;;;19.80;39.50;;;;;;5040418;28;20535;-71
2021/03/20 00:32:53;;;;;;;2.10;2.00;;;19.90;39.60;;;;;;5066349;28;20481;-70
2021/03/20 00:35:20;;;;;;;2.13;1.97;;;19.90;39.50;;;;;;5041058;28;20480;-71
2021/03/20 00:37:47;;;;;;;2.77;2.27;;;19.90;39.60;;;;;;5082511;28;20470;-70
2021/03/20 00:40:14;;;;;;;2.03;1.93;;;19.90;39.50;;;;;;5050094;28;20547;-69
2021/03/20 00:42:41;;;;;;;2.40;2.00;;;19.80;39.60;;;;;;5032114;28;20492;-70
2021/03/20 00:45:08;;;;;;;1.93;1.83;;;19.80;39.80;;;;;;5033702;28;20474;-70
2021/03/20 00:47:35;;;;;;;1.53;1.53;;;19.80;39.70;;;;;;5054587;27;21568;-70
2021/03/20 00:50:01;;;;;;;1.50;1.40;;;19.80;39.70;;;;;;5059019;28;20497;-70
2021/03/20 00:52:27;;;;;;;2.00;1.80;;;19.80;39.60;;;;;;5047896;28;20496;-70
2021/03/20 00:54:53;;;;;;;1.93;1.80;;;19.90;39.60;;;;;;5057428;28;20484;-70
2021/03/20 00:57:19;;;;;;;1.67;1.57;;;19.90;39.60;;;;;;5056483;28;20516;-69
2021/03/20 00:59:47;;;;;;;1.60;1.47;;;19.90;39.60;;;;;;5050234;28;20556;-69
2021/03/20 01:02:13;;;;;;;1.90;1.80;;;19.80;39.40;;;;;;5067756;28;21001;-70
2021/03/20 01:04:40;;;;;;;2.07;1.97;;;19.80;39.40;;;;;;5053376;28;21177;-70
2021/03/20 01:07:06;;;;;;;2.00;1.90;;;19.80;39.60;;;;;;5027726;28;20478;-70
2021/03/20 01:09:32;;;;;;;1.43;1.43;;;19.80;39.70;;;;;;5063821;28;20483;-70
2021/03/20 01:11:59;;;;;;;2.37;2.27;;;19.80;39.80;;;;;;5040810;28;20502;-70
2021/03/20 01:14:25;;;;;;;1.63;1.53;;;19.80;40.00;;;;;;5045378;28;20918;-70
2021/03/20 01:16:51;;;;;;;2.60;2.30;;;19.70;39.80;;;;;;5073799;28;20477;-70
2021/03/20 01:19:17;;;;;;;1.60;1.50;;;19.70;39.50;;;;;;5044852;28;20481;-70
2021/03/20 01:21:44;;;;;;;1.60;1.50;;;19.70;39.60;;;;;;5045173;28;20474;-71
2021/03/20 01:24:10;;;;;;;2.57;2.37;;;19.70;39.70;;;;;;5053278;28;21092;-69
2021/03/20 01:26:37;;;;;;;1.63;1.53;;;19.70;39.60;;;;;;5053873;28;21423;-70
2021/03/20 01:29:03;;;;;;;1.57;1.47;;;19.70;39.60;;;;;;5066342;28;20492;-70
2021/03/20 01:31:29;;;;;;;1.43;1.43;;;19.70;39.70;;;;;;5042778;28;20488;-70
2021/03/20 01:33:55;;;;;;;1.53;1.43;;;19.70;39.50;;;;;;5019569;28;20502;-70
2021/03/20 01:36:21;;;;;;;1.70;1.60;;;19.70;39.60;;;;;;5010417;28;20556;-70
2021/03/20 01:38:48;;;;;;;2.10;1.90;;;19.70;39.60;;;;;;5038392;28;20598;-69
2021/03/20 01:41:16;;;;;;;1.87;1.77;;;19.70;39.60;;;;;;5075755;28;20498;-70
2021/03/20 01:43:42;;;;;;;2.30;1.70;;;19.70;39.80;;;;;;5052589;28;20481;-70
2021/03/20 01:46:44;;;;;;;1.43;1.33;;;19.70;39.90;;;;;;5081101;28;21017;-70
2021/03/20 01:49:15;;;;;;;3.37;1.77;;;19.70;39.80;;;;;;5057419;28;20473;-70
2021/03/20 01:51:42;;;;;;;2.00;1.90;;;19.70;39.50;;;;;;5059215;28;21009;-70
2021/03/20 01:54:09;;;;;;;1.60;1.50;;;19.80;39.50;;;;;;5055814;28;20469;-70
2021/03/20 01:56:39;;;;;;;2.10;1.60;;;19.80;39.30;;;;;;5053453;28;22073;-69
2021/03/20 01:59:05;;;;;;;2.17;2.07;;;19.80;39.50;;;;;;5048170;28;20470;-70
2021/03/20 02:01:31;;;;;;;2.07;1.97;;;19.80;39.40;;;;;;5054861;28;20490;-69
2021/03/20 02:03:58;;;;;;;2.00;1.90;;;19.80;39.50;;;;;;5056770;28;20478;-70
2021/03/20 02:06:24;;;;;;;2.60;1.90;;;19.80;39.50;;;;;;5056700;28;21212;-70
2021/03/20 02:08:51;;;;;;;2.80;2.60;;;19.80;39.50;;;;;;5056145;28;20487;-70
2021/03/20 02:11:21;;;;;;;1.60;1.50;;;19.80;38.90;;;;;;5058350;28;20478;-70
2021/03/20 02:13:49;;;;;;;2.33;2.00;;;19.80;39.70;;;;;;5042155;28;20497;-71
2021/03/20 02:16:17;;;;;;;1.90;1.80;;;19.70;39.50;;;;;;5051741;28;20489;-71
2021/03/20 02:18:44;;;;;;;2.30;1.40;;;19.70;39.60;;;;;;5058551;28;20532;-71
2021/03/20 02:21:14;;;;;;;2.13;2.03;;;19.70;39.60;;;;;;5064770;28;20468;-70
2021/03/20 02:24:26;;;;;;;1.60;1.50;;;19.70;39.70;;;;;;5059528;28;20589;-70
2021/03/20 02:27:22;;;;;;;1.53;1.37;;;19.80;39.70;;;;;;5054550;28;20474;-71
2021/03/20 02:30:32;;;;;;;1.80;1.70;;;19.80;39.60;;;;;;5048970;28;20470;-70
2021/03/20 02:33:08;;;;;;;1.70;1.60;;;19.80;39.40;;;;;;5044992;28;20530;-69
2021/03/20 02:35:37;;;;;;;1.70;1.60;;;19.80;39.50;;;;;;5055244;28;20499;-69
2021/03/20 02:38:09;;;;;;;2.20;1.80;;;19.80;39.60;;;;;;5053042;28;20488;-69
2021/03/20 02:40:40;;;;;;;2.20;2.00;;;19.80;39.60;;;;;;5072802;28;20847;-70
2021/03/20 02:43:09;;;;;;;1.60;1.50;;;19.80;39.50;;;;;;5041023;28;20500;-70
2021/03/20 02:45:37;;;;;;;1.90;1.80;;;19.70;39.50;;;;;;5076503;28;20474;-70
2021/03/20 02:48:09;;;;;;;1.67;1.57;;;19.80;39.60;;;;;;5058931;28;20628;-70
2021/03/20 02:50:38;;;;;;;2.00;1.90;;;19.80;39.70;;;;;;5057274;28;20486;-68
2021/03/20 02:53:09;;;;;;;2.97;1.53;;;19.80;39.60;;;;;;5047313;28;20517;-69
2021/03/20 02:55:37;;;;;;;1.60;1.50;;;19.70;39.50;;;;;;5073269;28;20485;-69
2021/03/20 02:58:05;;;;;;;2.57;2.10;;;19.80;39.50;;;;;;5056064;28;20509;-70
2021/03/20 03:00:34;;;;;;;1.60;1.60;;;19.80;39.50;;;;;;5042222;28;20497;-70
2021/03/20 03:03:00;;;;;;;1.27;1.27;;;19.80;39.70;;;;;;5041640;28;20497;-69
2021/03/20 03:05:29;;;;;;;1.70;1.60;;;19.70;39.40;;;;;;5042495;28;20472;-71
2021/03/20 03:07:57;;;;;;;1.30;1.30;;;19.70;39.50;;;;;;5063860;28;20485;-69
2021/03/20 03:10:27;;;;;;;2.10;2.00;;;19.70;39.40;;;;;;5039094;28;20484;-70
2021/03/20 03:12:54;;;;;;;1.87;1.77;;;19.70;39.50;;;;;;5034291;28;20482;-70
2021/03/20 03:15:23;;;;;;;1.60;1.60;;;19.70;39.60;;;;;;5048132;28;20510;-69
2021/03/20 03:17:51;;;;;;;2.07;1.97;;;19.70;39.60;;;;;;5052347;28;20477;-70
2021/03/20 03:20:19;;;;;;;2.27;1.50;;;19.70;39.50;;;;;;5044855;28;20812;-69
2021/03/20 03:22:49;;;;;;;1.53;1.43;;;19.70;39.50;;;;;;5073840;28;20482;-70
2021/03/20 03:25:16;;;;;;;1.70;1.60;;;19.70;39.50;;;;;;5065002;28;20488;-70
2021/03/20 03:27:45;;;;;;;1.80;1.70;;;19.70;39.50;;;;;;5056689;28;20480;-70
2021/03/20 03:30:13;;;;;;;2.43;1.80;;;19.70;39.60;;;;;;5051279;28;20486;-70
2021/03/20 03:32:41;;;;;;;1.83;1.27;;;19.70;39.40;;;;;;5039691;28;20853;-70
2021/03/20 03:35:09;;;;;;;1.57;1.50;;;19.60;39.50;;;;;;5040369;28;20480;-70
2021/03/20 03:37:36;;;;;;;2.13;1.60;;;19.60;39.30;;;;;;5046648;28;20916;-70
2021/03/20 03:40:06;;;;;;;1.90;1.80;;;19.60;39.40;;;;;;5067291;28;21113;-70
2021/03/20 03:42:32;;;;;;;1.73;1.63;;;19.70;39.70;;;;;;5016685;28;20985;-69
2021/03/20 03:44:58;;;;;;;1.77;1.67;;;19.70;39.70;;;;;;5025155;28;20493;-70
2021/03/20 03:47:25;;;;;;;1.80;1.70;;;19.70;39.50;;;;;;5062666;28;20490;-70
2021/03/20 03:49:53;;;;;;;1.60;1.50;;;19.70;39.60;;;;;;5056490;28;21019;-70
2021/03/20 03:52:19;;;;;;;2.60;1.70;;;19.70;39.60;;;;;;5057831;28;20489;-69
2021/03/20 03:54:45;;;;;;;2.07;1.83;;;19.70;39.80;;;;;;5040037;28;21079;-69
2021/03/20 03:57:37;;;;;;;1.77;1.63;;;19.60;39.60;;;;;;5054391;28;20496;-70
2021/03/20 04:00:21;;;;;;;1.43;1.33;;;19.60;39.50;;;;;;5062656;28;20556;-70
2021/03/20 04:03:17;;;;;;;1.23;1.23;;;19.60;39.50;;;;;;5015471;28;20477;-69
2021/03/20 04:05:48;;;;;;;1.40;1.30;;;19.60;39.30;;;;;;5044502;28;20852;-69
2021/03/20 04:08:18;;;;;;;1.30;1.20;;;19.60;39.60;;;;;;5055331;28;20994;-69
2021/03/20 04:10:45;;;;;;;1.50;1.40;;;19.60;39.50;;;;;;5050456;28;21067;-70
2021/03/20 04:13:15;;;;;;;2.20;1.60;;;19.60;39.40;;;;;;5061406;27;20915;-71
2021/03/20 04:15:55;;;;;;;1.67;1.57;;;19.60;39.40;;;;;;5056293;28;20477;-69
2021/03/20 04:18:25;;;;;;;2.20;1.90;;;19.60;39.20;;;;;;5068509;28;20523;-70
2021/03/20 04:20:55;;;;;;;0.90;0.90;;;19.60;39.30;;;;;;5069319;28;21386;-69
2021/03/20 04:23:22;;;;;;;1.40;1.30;;;19.60;39.30;;;;;;5053649;28;20497;-69
2021/03/20 04:25:51;;;;;;;1.47;1.37;;;19.60;39.30;;;;;;5033226;28;21162;-70
2021/03/20 04:28:25;;;;;;;1.80;1.23;;;19.60;39.20;;;;;;5055086;28;20611;-69
2021/03/20 04:30:52;;;;;;;1.73;1.10;;;19.60;39.50;;;;;;5066993;28;20521;-69
2021/03/20 04:33:21;;;;;;;1.63;1.53;;;19.60;39.60;;;;;;5065898;28;20574;-70
2021/03/20 04:35:51;;;;;;;1.20;1.20;;;19.60;39.50;;;;;;5047045;28;20486;-70
2021/03/20 04:38:17;;;;;;;1.40;1.40;;;19.70;39.60;;;;;;5028366;28;20511;-70
2021/03/20 04:40:45;;;;;;;1.30;1.30;;;19.70;39.40;;;;;;5065161;28;20477;-70
2021/03/20 04:43:12;;;;;;;1.37;1.27;;;19.70;39.60;;;;;;5039438;28;20486;-70
2021/03/20 04:45:40;;;;;;;1.57;1.20;;;19.70;39.50;;;;;;5066500;28;20493;-70
2021/03/20 04:48:11;;;;;;;2.13;1.60;;;19.70;39.60;;;;;;5049833;28;20489;-70
2021/03/20 04:50:37;;;;;;;0.90;0.90;;;19.60;39.20;;;;;;5051779;28;20476;-70
2021/03/20 04:53:03;;;;;;;1.00;1.00;;;19.70;39.50;;;;;;5050896;28;20485;-70
2021/03/20 04:55:29;;;;;;;1.30;1.10;;;19.70;39.40;;;;;;5051009;28;20492;-70
2021/03/20 04:58:00;;;;;;;1.10;1.10;;;19.70;39.60;;;;;;5061007;28;20492;-70
2021/03/20 05:00:30;;;;;;;1.57;1.10;;;19.70;39.80;;;;;;5046911;28;20494;-70
2021/03/20 05:02:59;;;;;;;1.40;1.30;;;19.70;39.80;;;;;;5056895;28;20513;-70
2021/03/20 05:05:28;;;;;;;1.10;1.07;;;19.70;39.70;;;;;;5050970;28;20525;-70
2021/03/20 05:07:55;;;;;;;1.13;1.13;;;19.70;39.80;;;;;;5054216;28;20478;-70
2021/03/20 05:10:29;;;;;;;0.90;0.90;;;19.70;40.00;;;;;;5050000;28;20492;-70
2021/03/20 05:12:56;;;;;;;1.10;1.10;;;19.70;39.50;;;;;;5049099;28;20997;-70
2021/03/20 05:15:23;;;;;;;1.63;0.87;;;19.60;39.30;;;;;;5038564;28;20495;-70
2021/03/20 05:17:50;;;;;;;1.77;1.20;;;19.60;39.30;;;;;;5044393;28;20487;-70
2021/03/20 05:20:17;;;;;;;1.17;1.17;;;19.60;39.40;;;;;;5051655;28;20496;-71
2021/03/20 05:22:43;;;;;;;2.10;1.43;;;19.60;39.50;;;;;;5055779;28;20482;-70
2021/03/20 05:25:12;;;;;;;1.00;1.00;;;19.60;39.20;;;;;;5042589;28;21641;-71
2021/03/20 05:27:39;;;;;;;0.90;0.90;;;19.60;39.30;;;;;;5037140;28;20553;-70
2021/03/20 05:30:07;;;;;;;1.47;0.80;;;19.60;39.30;;;;;;5053932;28;20497;-70
2021/03/20 05:32:34;;;;;;;2.93;0.97;;;19.60;40.20;;;;;;5065856;28;20567;-70
2021/03/20 05:35:01;;;;;;;2.03;1.00;;;19.60;39.40;;;;;;5055982;28;20496;-70
2021/03/20 05:37:29;;;;;;;1.30;1.20;;;19.60;39.30;;;;;;5064288;28;20470;-70
2021/03/20 05:39:55;;;;;;;1.43;1.07;;;19.60;39.30;;;;;;5036036;28;20494;-70
2021/03/20 05:42:39;;;;;;;0.80;0.80;;;19.60;39.10;;;;;;5043645;28;20478;-70
2021/03/20 05:45:25;;;;;;;1.00;1.00;;;19.60;39.20;;;;;;5058592;28;21562;-70
2021/03/20 05:48:02;;;;;;;0.73;0.73;;;19.60;39.20;;;;;;5048249;28;20568;-71
2021/03/20 05:50:40;;;;;;;1.90;1.80;;;19.60;39.30;;;;;;5010392;28;20490;-71
2021/03/20 05:53:32;;;;;;;1.10;1.00;;;19.60;39.40;;;;;;5051587;28;20473;-70
2021/03/20 05:55:58;;;;;;;1.37;0.97;;;19.60;39.40;;;;;;5048319;28;20469;-69
2021/03/20 05:58:36;;;;;;;0.80;0.73;;;19.60;39.60;;;;;;5062009;28;20509;-70
2021/03/20 06:01:05;;;;;;;0.90;0.90;;;19.60;39.70;;;;;;5055840;28;20470;-70
2021/03/20 06:03:43;;;;;;;0.90;0.90;;;19.60;39.50;;;;;;5056483;28;20551;-71
2021/03/20 06:06:22;;;;;;;0.87;0.87;;;19.50;39.80;;;;;;5053678;28;20494;-70
2021/03/20 06:08:58;;;;;;;0.93;0.93;;;19.50;39.60;;;;;;5032803;28;21367;-70
2021/03/20 06:11:32;;;;;;;1.00;1.00;;;19.50;39.60;;;;;;5053465;28;20482;-70
2021/03/20 06:14:05;;;;;;;1.83;0.97;;;19.50;39.50;;;;;;5031449;28;21122;-70
2021/03/20 06:16:33;;;;;;;1.60;1.10;;;19.50;39.50;;;;;;5080077;28;20481;-70
2021/03/20 06:19:12;;;;;;;1.17;1.07;;;19.50;39.40;;;;;;5052146;28;20532;-70
2021/03/20 06:21:44;;;;;;;1.10;0.90;;;19.50;39.30;;;;;;5053957;28;20986;-70
2021/03/20 06:24:49;;;;;;;1.93;1.00;;;19.50;39.30;;;;;;5032082;28;20489;-70
2021/03/20 06:27:17;;;;;;;1.10;1.10;;;19.60;39.30;;;;;;5048818;28;20498;-70
2021/03/20 06:29:48;;;;;;;0.63;0.63;;;19.50;39.30;;;;;;5057560;28;20835;-70
2021/03/20 06:32:20;;;;;;;0.87;0.87;;;19.60;39.20;;;;;;5053884;28;20490;-70
2021/03/20 06:34:47;;;;;;;1.20;1.10;;;19.60;39.10;;;;;;5052541;28;20478;-70
2021/03/20 06:37:15;;;;;;;1.20;1.10;;;19.60;39.00;;;;;;5042331;28;21035;-71
2021/03/20 06:39:45;;;;;;;1.00;0.80;;;19.60;39.30;;;;;;5054674;28;20532;-70
2021/03/20 06:42:16;;;;;;;1.63;1.00;;;19.60;39.30;;;;;;5041540;28;20474;-69
2021/03/20 06:44:43;;;;;;;1.00;1.00;;;19.60;39.40;;;;;;5063706;28;20483;-71
2021/03/20 06:47:14;;;;;;;1.00;0.80;;;19.60;39.20;;;;;;5043288;28;20484;-70
2021/03/20 06:49:42;;;;;;;1.27;0.97;;;19.60;39.10;;;;;;5070931;28;20481;-71
2021/03/20 06:52:14;;;;;;;1.20;1.03;;;19.60;39.10;;;;;;5050056;28;20495;-70
2021/03/20 06:54:41;;;;;;;0.70;0.70;;;19.60;39.20;;;;;;5063282;28;20485;-71
2021/03/20 06:57:08;;;;;;;0.93;0.93;;;19.60;39.20;;;;;;5064400;28;20488;-70
2021/03/20 06:59:34;;;;;;;0.90;0.90;;;19.50;39.10;;;;;;5066978;28;20489;-70
2021/03/20 07:02:02;;;;;;;1.50;0.83;;;19.50;39.20;;;;;;5051117;28;20480;-71
2021/03/20 07:04:52;;;;;;;0.97;0.80;;;19.60;39.30;;;;;;5061504;28;20985;-70
2021/03/20 07:07:40;;;;;;;1.70;1.07;;;19.60;39.00;;;;;;5050619;28;20486;-70
2021/03/20 07:10:10;;;;;;;1.20;1.10;;;19.60;38.70;;;;;;5062770;28;20476;-70
2021/03/20 07:12:38;;;;;;;0.87;0.80;;;19.70;38.60;;;;;;5060876;28;20618;-70
2021/03/20 07:15:19;;;;;;;1.07;0.97;;;19.70;38.60;;;;;;5067684;28;20500;-70
2021/03/20 07:17:45;;;;;;;0.90;0.90;;;19.80;38.30;;;;;;5068351;28;20488;-70
2021/03/20 07:20:13;;;;;;;0.77;0.77;;;19.80;38.10;;;;;;5038015;28;20497;-70
2021/03/20 07:22:40;;;;;;;0.80;0.80;;;19.80;37.70;;;;;;5055758;28;20468;-70
2021/03/20 07:25:20;;;;;;;0.80;0.80;;;19.80;37.80;;;;;;5058268;28;20478;-70
2021/03/20 07:27:47;;;;;;;1.40;1.30;;;19.80;37.80;;;;;;5031974;28;20472;-71
2021/03/20 07:30:29;;;;;;;1.07;0.77;;;19.80;37.70;;;;;;5046449;28;20470;-71
2021/03/20 07:32:56;;;;;;;1.03;0.97;;;19.90;37.80;;;;;;5064159;28;21121;-71
2021/03/20 07:35:30;;;;;;;0.77;0.77;;;19.90;37.80;;;;;;5053043;28;20876;-71
2021/03/20 07:37:56;;;;;;;1.23;0.90;;;19.90;37.80;;;;;;5049348;28;20486;-71
2021/03/20 07:40:31;;;;;;;0.80;0.80;;;19.90;37.80;;;;;;5083560;28;20482;-70
2021/03/20 07:43:11;;;;;;;1.43;0.80;;;19.90;37.80;;;;;;5058228;28;20482;-70
2021/03/20 07:45:37;;;;;;;0.60;0.60;;;19.90;37.80;;;;;;5050456;28;20555;-71
2021/03/20 07:48:04;;;;;;;0.90;0.90;;;19.90;37.80;;;;;;5054847;28;20488;-70
2021/03/20 07:50:31;;;;;;;0.80;0.80;;;19.90;37.80;;;;;;5067865;28;20539;-70
2021/03/20 07:53:11;;;;;;;1.03;0.97;;;19.90;37.80;;;;;;5050331;28;20553;-69
2021/03/20 07:56:01;;;;;;;2.30;0.77;;;19.90;37.80;;;;;;5056835;28;20530;-70
2021/03/20 07:58:35;;;;;;;0.63;0.63;;;19.90;37.80;;;;;;5061683;27;20487;-70
2021/03/20 08:01:02;;;;;;;1.53;0.90;;;19.90;37.80;;;;;;5064403;28;20477;-71
2021/03/20 08:03:30;;;;;;;1.00;0.83;;;20.00;37.90;;;;;;5052754;28;20484;-70
2021/03/20 08:06:13;;;;;;;0.80;0.80;;;20.00;37.90;;;;;;5052589;28;20486;-71
2021/03/20 08:08:39;;;;;;;0.80;0.80;;;20.00;37.90;;;;;;5055074;28;20487;-71
2021/03/20 08:11:05;;;;;;;0.80;0.80;;;20.00;38.70;;;;;;5063977;28;20477;-70
2021/03/20 08:13:42;;;;;;;1.23;0.97;;;20.10;38.00;;;;;;5031784;28;20479;-71
2021/03/20 08:16:08;;;;;;;0.90;0.83;;;20.10;37.90;;;;;;5059106;28;20500;-70
2021/03/20 08:18:35;;;;;;;1.00;1.00;;;20.00;37.90;;;;;;5056698;28;20485;-70
2021/03/20 08:21:22;;;;;;;0.80;0.70;;;20.10;38.00;;;;;;5046186;28;20474;-70
2021/03/20 08:24:02;;;;;;;1.43;1.17;;;20.00;37.90;;;;;;5054265;28;20493;-71
2021/03/20 08:26:34;;;;;;;1.80;0.80;;;20.00;37.90;;;;;;5050912;28;20474;-70
2021/03/20 08:29:03;;;;;;;0.80;0.80;;;20.00;37.90;;;;;;5033984;28;20745;-71
2021/03/20 08:31:44;;;;;;;1.47;0.90;;;20.00;37.90;;;;;;5041569;28;20538;-70
2021/03/20 08:34:16;;;;;;;0.67;0.67;;;20.00;37.90;;;;;;5048538;28;20480;-70
2021/03/20 08:36:50;;;;;;;1.37;1.07;;;20.10;38.00;;;;;;5045807;28;20554;-70
2021/03/20 08:39:24;;;;;;;1.00;0.73;;;20.10;37.90;;;;;;5030539;28;20603;-69
2021/03/20 08:41:55;;;;;;;1.13;1.03;;;20.00;37.90;;;;;;5062217;28;20911;-70
2021/03/20 08:44:45;;;;;;;2.10;0.97;;;20.00;37.90;;;;;;5048193;28;20489;-70
2021/03/20 08:47:36;;;;;;;0.80;0.80;;;20.00;37.90;;;;;;5042824;28;20591;-70
2021/03/20 08:50:09;;;;;;;1.30;1.20;;;20.00;37.90;;;;;;5008951;28;20478;-70
2021/03/20 08:52:39;;;;;;;1.23;0.80;;;20.00;37.90;;;;;;5049593;28;20473;-70
2021/03/20 08:55:26;;;;;;;1.10;1.10;;;20.10;37.90;;;;;;5033149;28;20584;-70
2021/03/20 08:57:54;;;;;;;1.10;1.00;;;20.10;38.00;;;;;;5026347;28;20474;-71
2021/03/20 09:00:24;;;;;;;0.80;0.80;;;20.10;38.00;;;;;;5042967;28;20486;-70
2021/03/20 09:02:52;;;;;;;0.90;0.90;;;20.10;37.90;;;;;;5032877;28;20546;-70
2021/03/20 09:05:25;;;;;;;1.00;0.87;;;20.00;37.90;;;;;;5048389;28;20469;-70
2021/03/20 09:07:53;;;;;;;0.87;0.87;;;20.00;37.90;;;;;;5047483;28;20512;-70
2021/03/20 09:10:22;;;;;;;1.07;0.70;;;20.00;37.90;;;;;;5054992;28;20483;-71
2021/03/20 09:12:50;;;;;;;0.70;0.70;;;20.00;37.90;;;;;;5061500;28;21214;-70
2021/03/20 09:15:19;;;;;;;1.90;0.77;;;20.00;37.90;;;;;;5078162;28;20493;-71
2021/03/20 09:17:46;;;;;;;1.47;0.83;;;20.00;37.90;;;;;;5069206;28;20473;-70
2021/03/20 09:20:20;;;;;;;0.60;0.60;;;20.00;37.90;;;;;;5053221;28;20481;-70
2021/03/20 09:22:47;;;;;;;1.20;0.80;;;20.00;37.90;;;;;;5054827;28;20508;-70
2021/03/20 09:25:19;;;;;;;1.07;0.90;;;20.00;38.70;;;;;;5054735;28;20515;-70
2021/03/20 09:28:04;;;;;;;2.73;1.10;;;20.00;37.90;;;;;;5043689;28;20530;-70
2021/03/20 09:30:32;;;;;;;0.70;0.67;;;20.00;37.90;;;;;;5052692;28;20561;-70
2021/03/20 09:33:00;;;;;;;1.40;0.77;;;20.00;37.90;;;;;;5049434;28;20534;-70
2021/03/20 09:35:36;;;;;;;0.70;0.67;;;20.00;37.90;;;;;;5050746;28;20993;-70
2021/03/20 09:38:03;;;;;;;0.80;0.70;;;20.00;37.90;;;;;;5062434;28;20522;-70
2021/03/20 09:40:50;;;;;;;0.97;0.97;;;20.00;37.90;;;;;;5063460;28;20469;-71
2021/03/20 09:43:21;;;;;;;1.70;0.77;;;20.00;37.90;;;;;;5032094;28;20560;-70
2021/03/20 09:45:47;;;;;;;0.80;0.80;;;20.00;37.90;;;;;;5057110;28;20985;-70
2021/03/20 09:48:46;;;;;;;1.00;0.90;;;20.00;37.90;;;;;;5055682;28;20485;-70
2021/03/20 09:51:54;;;;;;;1.07;0.80;;;19.90;37.80;;;;;;5053268;28;21368;-70
2021/03/20 09:54:39;;;;;;;0.80;0.73;;;19.90;37.80;;;;;;5063149;28;20568;-70
2021/03/20 09:57:39;;;;;;;0.70;0.70;;;19.90;37.80;;;;;;5062711;28;20520;-70
2021/03/20 10:00:06;;;;;;;1.40;1.00;;;19.90;37.80;;;;;;5052521;28;21108;-70
2021/03/20 10:02:54;;;;;;;0.90;0.90;;;19.90;37.80;;;;;;5059814;28;20469;-70
2021/03/20 10:05:29;;;;;;;0.70;0.70;;;19.90;37.80;;;;;;5052107;28;20939;-70
2021/03/20 10:08:00;;;;;;;0.90;0.90;;;19.90;37.80;;;;;;5059901;28;21525;-70
2021/03/20 10:10:48;;;;;;;0.90;0.70;;;19.90;37.80;;;;;;5069192;28;20488;-70
2021/03/20 10:13:16;;;;;;;1.13;0.80;;;19.90;37.80;;;;;;5047769;28;20566;-69
2021/03/20 10:16:01;;;;;;;1.03;0.90;;;19.90;37.80;;;;;;5066930;28;20472;-70
2021/03/20 10:18:49;;;;;;;1.20;1.00;;;19.90;37.80;;;;;;5057807;28;20535;-69
2021/03/20 10:21:19;;;;;;;1.23;0.87;;;19.90;37.80;;;;;;5055599;28;20761;-70
2021/03/20 10:24:15;;;;;;;0.60;0.60;;;19.90;37.80;;;;;;5055254;28;22151;-70
2021/03/20 10:26:42;;;;;;;2.00;0.97;;;19.90;37.80;;;;;;5055848;28;20474;-71
2021/03/20 10:29:12;;;;;;;0.90;0.90;;;19.90;37.80;;;;;;5051126;28;20472;-70
2021/03/20 10:31:42;;;;;;;1.20;1.10;;;19.90;37.80;;;;;;5072408;28;21150;-70
2021/03/20 10:34:10;;;;;;;0.87;0.80;;;19.80;37.70;;;;;;5059925;28;20944;-70
2021/03/20 10:36:38;;;;;;;0.83;0.80;;;19.80;37.70;;;;;;5061932;28;20479;-70
2021/03/20 10:39:22;;;;;;;1.00;0.90;;;19.80;38.30;;;;;;5067173;28;20555;-70
2021/03/20 10:41:48;;;;;;;1.03;0.70;;;19.90;37.80;;;;;;5053105;28;20472;-70
2021/03/20 10:44:16;;;;;;;1.10;0.87;;;19.90;37.80;;;;;;5027284;28;20485;-69
2021/03/20 10:46:42;;;;;;;0.90;0.90;;;19.90;37.80;;;;;;5079020;28;20478;-70
2021/03/20 10:49:13;;;;;;;1.70;1.13;;;19.90;37.80;;;;;;5057806;28;20501;-70
2021/03/20 10:51:40;;;;;;;1.10;1.00;;;19.90;37.80;;;;;;5066634;28;20493;-70
2021/03/20 10:54:11;;;;;;;1.03;0.90;;;19.90;37.80;;;;;;5066735;28;20489;-69
2021/03/20 10:56:38;;;;;;;0.90;0.90;;;19.90;37.80;;;;;;5066905;27;20474;-70
2021/03/20 10:59:11;;;;;;;2.03;0.73;;;19.90;37.80;;;;;;5070098;28;20522;-69
2021/03/20 11:01:37;;;;;;;0.70;0.70;;;19.90;37.80;;;;;;5054686;28;20481;-69
2021/03/20 11:04:04;;;;;;;0.70;0.70;;;19.90;37.80;;;;;;5062536;28;20473;-70
2021/03/20 11:06:31;;;;;;;0.67;0.60;;;19.90;37.80;;;;;;5047613;28;20484;-70
2021/03/20 11:09:10;;;;;;;1.40;0.90;;;19.90;37.80;;;;;;5065853;28;20482;-69
2021/03/20 11:11:37;;;;;;;1.80;0.80;;;20.00;38.70;;;;;;5051953;28;20504;-70
2021/03/20 11:14:05;;;;;;;0.90;0.90;;;20.00;37.90;;;;;;5063210;28;20995;-70
2021/03/20 11:16:31;;;;;;;0.83;0.83;;;19.90;37.80;;;;;;5065441;28;20476;-70
2021/03/20 11:19:03;;;;;;;1.17;0.97;;;19.90;37.80;;;;;;5060464;28;20484;-70
2021/03/20 11:21:32;;;;;;;1.07;1.07;;;19.90;37.80;;;;;;5045522;28;20493;-70
2021/03/20 11:23:59;;;;;;;0.73;0.73;;;19.90;37.80;;;;;;5046474;28;21242;-70
2021/03/20 11:26:32;;;;;;;0.80;0.80;;;19.90;37.80;;;;;;5042476;28;20485;-71
2021/03/20 11:28:59;;;;;;;1.37;0.80;;;19.90;37.80;;;;;;5044068;28;20486;-70
2021/03/20 11:31:25;;;;;;;0.70;0.70;;;19.90;37.80;;;;;;5056156;28;21240;-70
2021/03/20 11:33:51;;;;;;;0.70;0.70;;;19.90;37.80;;;;;;5048246;28;21162;-70
2021/03/20 11:36:19;;;;;;;1.30;1.20;;;19.90;37.80;;;;;;5044181;28;20499;-70
2021/03/20 11:38:46;;;;;;;0.93;0.93;;;19.90;37.80;;;;;;5051212;28;20509;-70
2021/03/20 11:41:20;;;;;;;0.70;0.70;;;20.00;37.90;;;;;;5041330;28;20507;-71
2021/03/20 11:43:49;;;;;;;1.50;1.17;;;20.00;37.90;;;;;;5048738;28;20543;-69
2021/03/20 11:46:17;;;;;;;0.63;0.63;;;20.00;37.90;;;;;;5072118;28;20481;-70
2021/03/20 11:48:44;;;;;;;1.40;1.07;;;20.00;37.90;;;;;;5058264;28;20478;-70
2021/03/20 11:51:13;;;;;;;0.80;0.80;;;19.90;37.80;;;;;;5064648;28;20485;-70
2021/03/20 11:53:42;;;;;;;1.43;0.90;;;19.90;37.80;;;;;;5050367;28;20547;-71
2021/03/20 11:56:13;;;;;;;1.90;0.70;;;19.90;37.80;;;;;;5070049;28;20494;-71
2021/03/20 11:58:40;;;;;;;2.70;1.10;;;19.90;37.80;;;;;;5054193;28;20474;-70
2021/03/20 12:01:25;;;;;;;0.90;0.90;;;19.90;37.80;;;;;;5055672;28;20490;-70
2021/03/20 12:03:51;;;;;;;0.97;0.90;;;19.90;37.80;;;;;;5055995;28;20900;-70
2021/03/20 12:06:23;;;;;;;0.90;0.90;;;19.90;37.80;;;;;;5057894;28;20489;-70
2021/03/20 12:08:50;;;;;;;1.30;0.83;;;19.90;37.80;;;;;;5055778;28;20481;-71
2021/03/20 12:11:17;;;;;;;0.63;0.63;;;19.90;37.80;;;;;;5055798;28;20530;-71
2021/03/20 12:13:48;;;;;;;0.70;0.70;;;19.90;37.80;;;;;;5055510;28;20988;-71
2021/03/20 12:16:32;;;;;;;1.40;0.80;;;19.90;37.80;;;;;;5057220;28;21085;-70
2021/03/20 12:19:09;;;;;;;0.73;0.73;;;19.90;37.80;;;;;;5058066;28;20477;-71
2021/03/20 12:21:51;;;;;;;0.80;0.80;;;19.90;37.80;;;;;;5045299;28;20480;-71
2021/03/20 12:24:19;;;;;;;0.80;0.80;;;19.90;37.80;;;;;;5051887;28;20482;-70
2021/03/20 12:26:46;;;;;;;0.83;0.83;;;19.90;37.80;;;;;;5058146;28;21467;-70
2021/03/20 12:29:26;;;;;;;1.10;0.93;;;19.90;37.80;;;;;;5040720;28;20488;-70
2021/03/20 12:31:53;;;;;;;0.67;0.67;;;19.80;37.80;;;;;;5037209;28;20476;-70
2021/03/20 12:34:28;;;;;;;0.90;0.90;;;19.90;37.80;;;;;;5036201;28;20490;-70
2021/03/20 12:37:09;;;;;;;0.70;0.70;;;19.80;37.80;;;;;;5027810;28;20920;-70
2021/03/20 12:39:36;;;;;;;0.90;0.70;;;19.90;37.80;;;;;;5044798;28;20474;-70
2021/03/20 12:42:02;;;;;;;1.10;1.10;;;19.90;37.80;;;;;;5068144;28;20489;-70
2021/03/20 12:44:28;;;;;;;0.50;0.50;;;19.90;37.80;;;;;;5057784;28;20477;-70
2021/03/20 12:46:56;;;;;;;0.70;0.70;;;19.90;37.80;;;;;;5061968;28;20547;-70
2021/03/20 12:49:26;;;;;;;0.80;0.80;;;19.90;37.80;;;;;;5051393;28;20485;-70
2021/03/20 12:51:55;;;;;;;0.83;0.83;;;19.90;37.80;;;;;;5079363;27;20477;-70
2021/03/20 12:54:22;;;;;;;0.87;0.87;;;19.80;37.70;;;;;;5051860;27;20481;-70
2021/03/20 12:56:48;;;;;;;2.40;0.97;;;19.80;37.80;;;;;;5077483;28;20477;-71
2021/03/20 12:59:14;;;;;;;0.83;0.83;;;19.80;37.70;;;;;;5074364;27;20472;-70
2021/03/20 13:01:41;;;;;;;0.70;0.70;;;19.80;37.70;;;;;;5072905;28;20469;-70
2021/03/20 13:04:11;;;;;;;2.00;0.90;;;19.80;37.70;;;;;;5053194;27;20501;-70
2021/03/20 13:06:37;;;;;;;1.60;1.50;;;19.80;37.70;;;;;;5061340;28;21001;-70
2021/03/20 13:09:03;;;;;;;0.97;0.70;;;19.80;37.70;;;;;;5058333;27;20485;-70